sensor_id;sensor_type;location;lat;lon;timestamp;P1;durP1;ratioP1;P2;durP2;ratioP2
37459;SDS011;23318;50.966;5.284;2023-07-09T00:02:19;12.73;;;7.05;;
37459;SDS011;23318;50.966;5.284;2023-07-09T00:04:45;12.73;;;6.82;;
37459;SDS011;23318;50.966;5.284;2023-07-09T00:07:18;11.43;;;7.38;;
37459;SDS011;23318;50.966;5.284;2023-07-09T00:09:50;9.55;;;7.43;;
37459;SDS011;23318;50.966;5.284;2023-07-09T00:12:16;11.85;;;6.88;;
37459;SDS011;23318;50.966;5.284;2023-07-09T00:14:43;10.57;;;6.40;;
37459;SDS011;23318;50.966;5.284;2023-07-09T00:17:18;10.25;;;7.40;;
37459;SDS011;23318;50.966;5.284;2023-07-09T00:19:48;10.23;;;6.78;;
37459;SDS011;23318;50.966;5.284;2023-07-09T00:22:15;13.98;;;6.97;;
37459;SDS011;23318;50.966;5.284;2023-07-09T00:24:42;10.65;;;7.15;;
37459;SDS011;23318;50.966;5.284;2023-07-09T00:27:12;9.05;;;6.50;;
37459;SDS011;23318;50.966;5.284;2023-07-09T00:29:40;10.55;;;6.97;;
37459;SDS011;23318;50.966;5.284;2023-07-09T00:32:13;8.43;;;7.05;;
37459;SDS011;23318;50.966;5.284;2023-07-09T00:34:41;15.25;;;7.35;;
37459;SDS011;23318;50.966;5.284;2023-07-09T00:37:11;9.38;;;6.22;;
37459;SDS011;23318;50.966;5.284;2023-07-09T00:39:38;8.35;;;6.75;;
37459;SDS011;23318;50.966;5.284;2023-07-09T00:42:05;9.18;;;7.18;;
37459;SDS011;23318;50.966;5.284;2023-07-09T00:44:36;20.17;;;7.60;;
37459;SDS011;23318;50.966;5.284;2023-07-09T00:47:12;11.32;;;6.97;;
37459;SDS011;23318;50.966;5.284;2023-07-09T00:49:46;13.52;;;6.90;;
37459;SDS011;23318;50.966;5.284;2023-07-09T00:52:32;18.13;;;7.10;;
37459;SDS011;23318;50.966;5.284;2023-07-09T00:55:05;10.35;;;6.38;;
37459;SDS011;23318;50.966;5.284;2023-07-09T00:57:36;8.30;;;6.53;;
37459;SDS011;23318;50.966;5.284;2023-07-09T01:00:05;11.25;;;6.50;;
37459;SDS011;23318;50.966;5.284;2023-07-09T01:02:41;10.05;;;7.30;;
37459;SDS011;23318;50.966;5.284;2023-07-09T01:05:12;10.10;;;6.38;;
37459;SDS011;23318;50.966;5.284;2023-07-09T01:07:41;9.05;;;6.70;;
37459;SDS011;23318;50.966;5.284;2023-07-09T01:10:11;10.40;;;6.78;;
37459;SDS011;23318;50.966;5.284;2023-07-09T01:12:38;7.45;;;6.10;;
37459;SDS011;23318;50.966;5.284;2023-07-09T01:15:05;9.13;;;6.65;;
37459;SDS011;23318;50.966;5.284;2023-07-09T01:17:32;9.95;;;7.00;;
37459;SDS011;23318;50.966;5.284;2023-07-09T01:19:59;9.93;;;6.43;;
37459;SDS011;23318;50.966;5.284;2023-07-09T01:22:25;10.18;;;6.60;;
37459;SDS011;23318;50.966;5.284;2023-07-09T01:27:36;12.48;;;6.95;;
37459;SDS011;23318;50.966;5.284;2023-07-09T01:30:05;14.23;;;7.35;;
37459;SDS011;23318;50.966;5.284;2023-07-09T01:32:39;11.07;;;6.68;;
37459;SDS011;23318;50.966;5.284;2023-07-09T01:35:10;9.07;;;6.28;;
37459;SDS011;23318;50.966;5.284;2023-07-09T01:37:38;10.65;;;6.43;;
37459;SDS011;23318;50.966;5.284;2023-07-09T01:40:04;8.43;;;6.20;;
37459;SDS011;23318;50.966;5.284;2023-07-09T01:42:31;9.02;;;6.55;;
37459;SDS011;23318;50.966;5.284;2023-07-09T01:44:57;8.23;;;6.65;;
37459;SDS011;23318;50.966;5.284;2023-07-09T01:47:23;9.48;;;6.93;;
37459;SDS011;23318;50.966;5.284;2023-07-09T01:49:50;9.77;;;6.80;;
37459;SDS011;23318;50.966;5.284;2023-07-09T01:52:16;11.35;;;7.07;;
37459;SDS011;23318;50.966;5.284;2023-07-09T01:54:44;11.95;;;7.57;;
37459;SDS011;23318;50.966;5.284;2023-07-09T01:59:50;9.35;;;6.97;;
37459;SDS011;23318;50.966;5.284;2023-07-09T02:02:18;11.27;;;6.95;;
37459;SDS011;23318;50.966;5.284;2023-07-09T02:04:54;7.38;;;6.10;;
37459;SDS011;23318;50.966;5.284;2023-07-09T02:07:21;11.05;;;6.60;;
37459;SDS011;23318;50.966;5.284;2023-07-09T02:09:48;8.90;;;6.45;;
37459;SDS011;23318;50.966;5.284;2023-07-09T02:12:15;9.75;;;6.00;;
37459;SDS011;23318;50.966;5.284;2023-07-09T02:14:42;9.55;;;6.18;;
37459;SDS011;23318;50.966;5.284;2023-07-09T02:17:09;8.63;;;5.85;;
37459;SDS011;23318;50.966;5.284;2023-07-09T02:19:35;12.15;;;6.00;;
37459;SDS011;23318;50.966;5.284;2023-07-09T02:22:01;9.98;;;6.18;;
37459;SDS011;23318;50.966;5.284;2023-07-09T02:24:28;13.13;;;6.95;;
37459;SDS011;23318;50.966;5.284;2023-07-09T02:26:54;9.82;;;6.70;;
37459;SDS011;23318;50.966;5.284;2023-07-09T02:29:20;13.50;;;7.38;;
37459;SDS011;23318;50.966;5.284;2023-07-09T02:31:48;12.80;;;6.90;;
37459;SDS011;23318;50.966;5.284;2023-07-09T02:34:16;7.88;;;6.70;;
37459;SDS011;23318;50.966;5.284;2023-07-09T02:36:42;10.05;;;6.68;;
37459;SDS011;23318;50.966;5.284;2023-07-09T02:39:12;10.80;;;7.00;;
37459;SDS011;23318;50.966;5.284;2023-07-09T02:41:39;9.23;;;7.15;;
37459;SDS011;23318;50.966;5.284;2023-07-09T02:44:05;10.77;;;7.63;;
37459;SDS011;23318;50.966;5.284;2023-07-09T02:46:32;13.07;;;7.50;;
37459;SDS011;23318;50.966;5.284;2023-07-09T02:48:58;10.75;;;7.53;;
37459;SDS011;23318;50.966;5.284;2023-07-09T02:51:24;10.00;;;7.03;;
37459;SDS011;23318;50.966;5.284;2023-07-09T02:53:53;13.75;;;7.38;;
37459;SDS011;23318;50.966;5.284;2023-07-09T02:56:19;9.50;;;7.38;;
37459;SDS011;23318;50.966;5.284;2023-07-09T02:58:45;11.13;;;7.28;;
37459;SDS011;23318;50.966;5.284;2023-07-09T03:01:11;11.18;;;7.13;;
37459;SDS011;23318;50.966;5.284;2023-07-09T03:03:37;12.10;;;7.10;;
37459;SDS011;23318;50.966;5.284;2023-07-09T03:06:03;10.40;;;7.55;;
37459;SDS011;23318;50.966;5.284;2023-07-09T03:08:29;10.98;;;7.57;;
37459;SDS011;23318;50.966;5.284;2023-07-09T03:10:55;10.75;;;7.78;;
37459;SDS011;23318;50.966;5.284;2023-07-09T03:13:21;11.70;;;7.15;;
37459;SDS011;23318;50.966;5.284;2023-07-09T03:15:53;9.73;;;6.68;;
37459;SDS011;23318;50.966;5.284;2023-07-09T03:18:22;9.23;;;6.07;;
37459;SDS011;23318;50.966;5.284;2023-07-09T03:20:49;10.27;;;6.82;;
37459;SDS011;23318;50.966;5.284;2023-07-09T03:23:15;12.60;;;6.82;;
37459;SDS011;23318;50.966;5.284;2023-07-09T03:25:42;9.40;;;6.57;;
37459;SDS011;23318;50.966;5.284;2023-07-09T03:28:09;10.40;;;6.57;;
37459;SDS011;23318;50.966;5.284;2023-07-09T03:30:39;12.63;;;6.65;;
37459;SDS011;23318;50.966;5.284;2023-07-09T03:33:06;10.20;;;7.35;;
37459;SDS011;23318;50.966;5.284;2023-07-09T03:35:32;9.82;;;7.38;;
37459;SDS011;23318;50.966;5.284;2023-07-09T03:37:59;10.98;;;8.10;;
37459;SDS011;23318;50.966;5.284;2023-07-09T03:40:25;16.33;;;7.82;;
37459;SDS011;23318;50.966;5.284;2023-07-09T03:42:51;13.30;;;7.60;;
37459;SDS011;23318;50.966;5.284;2023-07-09T03:45:16;11.88;;;8.35;;
37459;SDS011;23318;50.966;5.284;2023-07-09T03:47:42;11.82;;;7.85;;
37459;SDS011;23318;50.966;5.284;2023-07-09T03:50:08;12.43;;;7.90;;
37459;SDS011;23318;50.966;5.284;2023-07-09T03:52:35;12.52;;;7.68;;
37459;SDS011;23318;50.966;5.284;2023-07-09T03:55:01;11.18;;;7.82;;
37459;SDS011;23318;50.966;5.284;2023-07-09T03:57:29;13.57;;;8.80;;
37459;SDS011;23318;50.966;5.284;2023-07-09T03:59:55;9.50;;;7.70;;
37459;SDS011;23318;50.966;5.284;2023-07-09T04:02:21;12.88;;;8.10;;
37459;SDS011;23318;50.966;5.284;2023-07-09T04:04:47;13.55;;;9.07;;
37459;SDS011;23318;50.966;5.284;2023-07-09T04:07:12;12.85;;;8.77;;
37459;SDS011;23318;50.966;5.284;2023-07-09T04:09:38;14.90;;;9.20;;
37459;SDS011;23318;50.966;5.284;2023-07-09T04:12:04;11.90;;;8.30;;
37459;SDS011;23318;50.966;5.284;2023-07-09T04:14:30;15.45;;;8.90;;
37459;SDS011;23318;50.966;5.284;2023-07-09T04:16:56;11.95;;;8.43;;
37459;SDS011;23318;50.966;5.284;2023-07-09T04:19:22;12.85;;;8.30;;
37459;SDS011;23318;50.966;5.284;2023-07-09T04:21:48;11.48;;;8.32;;
37459;SDS011;23318;50.966;5.284;2023-07-09T04:24:15;13.75;;;8.65;;
37459;SDS011;23318;50.966;5.284;2023-07-09T04:26:42;14.13;;;8.75;;
37459;SDS011;23318;50.966;5.284;2023-07-09T04:29:08;12.55;;;7.75;;
37459;SDS011;23318;50.966;5.284;2023-07-09T04:31:34;13.23;;;7.95;;
37459;SDS011;23318;50.966;5.284;2023-07-09T04:33:59;10.27;;;7.60;;
37459;SDS011;23318;50.966;5.284;2023-07-09T04:36:25;12.05;;;8.85;;
37459;SDS011;23318;50.966;5.284;2023-07-09T04:38:51;10.45;;;7.97;;
37459;SDS011;23318;50.966;5.284;2023-07-09T04:41:17;12.43;;;8.52;;
37459;SDS011;23318;50.966;5.284;2023-07-09T04:43:43;13.20;;;7.47;;
37459;SDS011;23318;50.966;5.284;2023-07-09T04:46:09;10.82;;;8.52;;
37459;SDS011;23318;50.966;5.284;2023-07-09T04:48:35;11.30;;;7.60;;
37459;SDS011;23318;50.966;5.284;2023-07-09T04:51:01;11.43;;;8.30;;
37459;SDS011;23318;50.966;5.284;2023-07-09T04:53:26;12.10;;;7.32;;
37459;SDS011;23318;50.966;5.284;2023-07-09T04:55:52;12.38;;;7.97;;
37459;SDS011;23318;50.966;5.284;2023-07-09T04:58:18;10.90;;;8.13;;
37459;SDS011;23318;50.966;5.284;2023-07-09T05:00:44;11.63;;;7.65;;
37459;SDS011;23318;50.966;5.284;2023-07-09T05:03:10;13.23;;;8.00;;
37459;SDS011;23318;50.966;5.284;2023-07-09T05:05:41;16.67;;;7.88;;
37459;SDS011;23318;50.966;5.284;2023-07-09T05:08:11;10.52;;;7.53;;
37459;SDS011;23318;50.966;5.284;2023-07-09T05:10:44;9.80;;;7.40;;
37459;SDS011;23318;50.966;5.284;2023-07-09T05:13:11;12.73;;;7.25;;
37459;SDS011;23318;50.966;5.284;2023-07-09T05:15:41;11.93;;;7.88;;
37459;SDS011;23318;50.966;5.284;2023-07-09T05:18:09;11.27;;;7.15;;
37459;SDS011;23318;50.966;5.284;2023-07-09T05:20:36;12.63;;;7.68;;
37459;SDS011;23318;50.966;5.284;2023-07-09T05:23:02;11.40;;;7.88;;
37459;SDS011;23318;50.966;5.284;2023-07-09T05:25:28;11.65;;;7.93;;
37459;SDS011;23318;50.966;5.284;2023-07-09T05:27:53;11.07;;;7.90;;
37459;SDS011;23318;50.966;5.284;2023-07-09T05:30:19;11.40;;;7.28;;
37459;SDS011;23318;50.966;5.284;2023-07-09T05:32:46;15.30;;;7.90;;
37459;SDS011;23318;50.966;5.284;2023-07-09T05:35:12;11.88;;;7.65;;
37459;SDS011;23318;50.966;5.284;2023-07-09T05:37:38;12.77;;;7.80;;
37459;SDS011;23318;50.966;5.284;2023-07-09T05:40:04;15.20;;;7.70;;
37459;SDS011;23318;50.966;5.284;2023-07-09T05:42:31;14.75;;;7.82;;
37459;SDS011;23318;50.966;5.284;2023-07-09T05:44:57;12.40;;;7.45;;
37459;SDS011;23318;50.966;5.284;2023-07-09T05:47:23;10.27;;;7.18;;
37459;SDS011;23318;50.966;5.284;2023-07-09T05:49:49;12.13;;;7.78;;
37459;SDS011;23318;50.966;5.284;2023-07-09T05:52:16;10.25;;;6.97;;
37459;SDS011;23318;50.966;5.284;2023-07-09T05:54:43;12.73;;;6.70;;
37459;SDS011;23318;50.966;5.284;2023-07-09T05:57:09;9.80;;;7.18;;
37459;SDS011;23318;50.966;5.284;2023-07-09T05:59:35;12.93;;;7.38;;
37459;SDS011;23318;50.966;5.284;2023-07-09T06:02:01;11.02;;;7.85;;
37459;SDS011;23318;50.966;5.284;2023-07-09T06:04:28;15.25;;;6.93;;
37459;SDS011;23318;50.966;5.284;2023-07-09T06:06:56;11.48;;;6.95;;
37459;SDS011;23318;50.966;5.284;2023-07-09T06:09:21;12.23;;;7.07;;
37459;SDS011;23318;50.966;5.284;2023-07-09T06:11:47;10.48;;;6.70;;
37459;SDS011;23318;50.966;5.284;2023-07-09T06:14:13;12.60;;;7.13;;
37459;SDS011;23318;50.966;5.284;2023-07-09T06:16:39;8.40;;;6.40;;
37459;SDS011;23318;50.966;5.284;2023-07-09T06:19:04;11.77;;;6.72;;
37459;SDS011;23318;50.966;5.284;2023-07-09T06:21:30;10.23;;;6.28;;
37459;SDS011;23318;50.966;5.284;2023-07-09T06:23:55;10.68;;;6.10;;
37459;SDS011;23318;50.966;5.284;2023-07-09T06:26:21;8.73;;;5.90;;
37459;SDS011;23318;50.966;5.284;2023-07-09T06:28:47;11.43;;;6.20;;
37459;SDS011;23318;50.966;5.284;2023-07-09T06:31:12;9.10;;;5.35;;
37459;SDS011;23318;50.966;5.284;2023-07-09T06:33:38;10.73;;;5.57;;
37459;SDS011;23318;50.966;5.284;2023-07-09T06:36:04;9.20;;;5.40;;
37459;SDS011;23318;50.966;5.284;2023-07-09T06:38:30;8.15;;;5.00;;
37459;SDS011;23318;50.966;5.284;2023-07-09T06:40:56;9.88;;;5.45;;
37459;SDS011;23318;50.966;5.284;2023-07-09T06:43:22;10.07;;;4.70;;
37459;SDS011;23318;50.966;5.284;2023-07-09T06:45:58;7.82;;;5.45;;
37459;SDS011;23318;50.966;5.284;2023-07-09T06:48:25;10.20;;;4.78;;
37459;SDS011;23318;50.966;5.284;2023-07-09T06:50:53;7.88;;;5.20;;
37459;SDS011;23318;50.966;5.284;2023-07-09T06:53:20;8.07;;;4.88;;
37459;SDS011;23318;50.966;5.284;2023-07-09T06:55:47;8.63;;;4.57;;
37459;SDS011;23318;50.966;5.284;2023-07-09T06:58:15;6.93;;;4.70;;
37459;SDS011;23318;50.966;5.284;2023-07-09T07:00:41;11.70;;;4.78;;
37459;SDS011;23318;50.966;5.284;2023-07-09T07:03:08;8.25;;;4.95;;
37459;SDS011;23318;50.966;5.284;2023-07-09T07:05:34;8.25;;;4.65;;
37459;SDS011;23318;50.966;5.284;2023-07-09T07:08:00;8.10;;;4.47;;
37459;SDS011;23318;50.966;5.284;2023-07-09T07:10:27;7.57;;;4.22;;
37459;SDS011;23318;50.966;5.284;2023-07-09T07:12:53;7.22;;;4.30;;
37459;SDS011;23318;50.966;5.284;2023-07-09T07:15:19;8.18;;;4.50;;
37459;SDS011;23318;50.966;5.284;2023-07-09T07:17:45;8.30;;;4.40;;
37459;SDS011;23318;50.966;5.284;2023-07-09T07:20:11;10.10;;;4.88;;
37459;SDS011;23318;50.966;5.284;2023-07-09T07:22:39;8.55;;;4.05;;
37459;SDS011;23318;50.966;5.284;2023-07-09T07:25:05;8.32;;;4.80;;
37459;SDS011;23318;50.966;5.284;2023-07-09T07:27:31;5.13;;;4.55;;
37459;SDS011;23318;50.966;5.284;2023-07-09T07:29:57;7.05;;;4.60;;
37459;SDS011;23318;50.966;5.284;2023-07-09T07:32:23;8.35;;;4.53;;
37459;SDS011;23318;50.966;5.284;2023-07-09T07:34:49;5.28;;;4.38;;
37459;SDS011;23318;50.966;5.284;2023-07-09T07:37:17;9.02;;;5.00;;
37459;SDS011;23318;50.966;5.284;2023-07-09T07:39:44;7.75;;;4.95;;
37459;SDS011;23318;50.966;5.284;2023-07-09T07:42:10;11.98;;;5.05;;
37459;SDS011;23318;50.966;5.284;2023-07-09T07:44:36;9.65;;;4.90;;
37459;SDS011;23318;50.966;5.284;2023-07-09T07:47:01;11.23;;;4.93;;
37459;SDS011;23318;50.966;5.284;2023-07-09T07:49:28;6.10;;;3.88;;
37459;SDS011;23318;50.966;5.284;2023-07-09T07:51:53;7.88;;;4.18;;
37459;SDS011;23318;50.966;5.284;2023-07-09T07:54:20;8.05;;;4.53;;
37459;SDS011;23318;50.966;5.284;2023-07-09T07:56:46;8.95;;;4.45;;
37459;SDS011;23318;50.966;5.284;2023-07-09T07:59:12;7.72;;;4.50;;
37459;SDS011;23318;50.966;5.284;2023-07-09T08:01:39;11.20;;;4.60;;
37459;SDS011;23318;50.966;5.284;2023-07-09T08:04:05;7.55;;;4.28;;
37459;SDS011;23318;50.966;5.284;2023-07-09T08:06:31;6.28;;;4.43;;
37459;SDS011;23318;50.966;5.284;2023-07-09T08:08:57;7.28;;;4.55;;
37459;SDS011;23318;50.966;5.284;2023-07-09T08:11:23;7.22;;;4.15;;
37459;SDS011;23318;50.966;5.284;2023-07-09T08:13:49;10.48;;;4.40;;
37459;SDS011;23318;50.966;5.284;2023-07-09T08:16:16;7.20;;;4.00;;
37459;SDS011;23318;50.966;5.284;2023-07-09T08:18:42;6.40;;;3.97;;
37459;SDS011;23318;50.966;5.284;2023-07-09T08:21:08;7.55;;;4.13;;
37459;SDS011;23318;50.966;5.284;2023-07-09T08:23:34;9.55;;;3.85;;
37459;SDS011;23318;50.966;5.284;2023-07-09T08:26:00;12.10;;;4.32;;
37459;SDS011;23318;50.966;5.284;2023-07-09T08:28:27;7.63;;;4.15;;
37459;SDS011;23318;50.966;5.284;2023-07-09T08:30:54;8.55;;;4.00;;
37459;SDS011;23318;50.966;5.284;2023-07-09T08:33:21;7.43;;;5.03;;
37459;SDS011;23318;50.966;5.284;2023-07-09T08:35:49;6.22;;;3.97;;
37459;SDS011;23318;50.966;5.284;2023-07-09T08:38:15;8.23;;;4.10;;
37459;SDS011;23318;50.966;5.284;2023-07-09T08:40:41;5.90;;;4.07;;
37459;SDS011;23318;50.966;5.284;2023-07-09T08:43:15;8.50;;;4.38;;
37459;SDS011;23318;50.966;5.284;2023-07-09T08:45:57;8.23;;;4.57;;
37459;SDS011;23318;50.966;5.284;2023-07-09T08:48:32;7.68;;;4.45;;
37459;SDS011;23318;50.966;5.284;2023-07-09T08:51:02;9.88;;;4.07;;
37459;SDS011;23318;50.966;5.284;2023-07-09T08:53:57;9.73;;;4.88;;
37459;SDS011;23318;50.966;5.284;2023-07-09T08:56:24;7.45;;;4.80;;
37459;SDS011;23318;50.966;5.284;2023-07-09T08:58:50;8.93;;;4.47;;
37459;SDS011;23318;50.966;5.284;2023-07-09T09:01:24;10.50;;;4.65;;
37459;SDS011;23318;50.966;5.284;2023-07-09T09:03:55;7.57;;;4.32;;
37459;SDS011;23318;50.966;5.284;2023-07-09T09:06:26;10.65;;;4.78;;
37459;SDS011;23318;50.966;5.284;2023-07-09T09:09:04;5.15;;;3.88;;
37459;SDS011;23318;50.966;5.284;2023-07-09T09:11:43;6.63;;;4.15;;
37459;SDS011;23318;50.966;5.284;2023-07-09T09:14:18;9.23;;;4.20;;
37459;SDS011;23318;50.966;5.284;2023-07-09T09:16:57;10.05;;;4.32;;
37459;SDS011;23318;50.966;5.284;2023-07-09T09:19:31;5.72;;;3.75;;
37459;SDS011;23318;50.966;5.284;2023-07-09T09:22:07;9.18;;;4.22;;
37459;SDS011;23318;50.966;5.284;2023-07-09T09:24:38;6.43;;;4.30;;
37459;SDS011;23318;50.966;5.284;2023-07-09T09:27:26;4.43;;;4.03;;
37459;SDS011;23318;50.966;5.284;2023-07-09T09:29:52;8.00;;;4.05;;
37459;SDS011;23318;50.966;5.284;2023-07-09T09:32:20;8.10;;;3.90;;
37459;SDS011;23318;50.966;5.284;2023-07-09T09:34:51;5.57;;;4.15;;
37459;SDS011;23318;50.966;5.284;2023-07-09T09:37:25;6.70;;;3.83;;
37459;SDS011;23318;50.966;5.284;2023-07-09T09:39:56;7.68;;;3.80;;
37459;SDS011;23318;50.966;5.284;2023-07-09T09:42:24;9.60;;;5.05;;
37459;SDS011;23318;50.966;5.284;2023-07-09T09:44:52;7.63;;;4.47;;
37459;SDS011;23318;50.966;5.284;2023-07-09T09:47:19;8.73;;;4.05;;
37459;SDS011;23318;50.966;5.284;2023-07-09T09:49:45;9.13;;;4.63;;
37459;SDS011;23318;50.966;5.284;2023-07-09T09:52:14;10.25;;;4.20;;
37459;SDS011;23318;50.966;5.284;2023-07-09T09:54:50;10.13;;;4.00;;
37459;SDS011;23318;50.966;5.284;2023-07-09T09:57:27;6.93;;;4.35;;
37459;SDS011;23318;50.966;5.284;2023-07-09T09:59:55;7.57;;;4.15;;
37459;SDS011;23318;50.966;5.284;2023-07-09T10:02:22;7.80;;;4.07;;
37459;SDS011;23318;50.966;5.284;2023-07-09T10:04:49;6.78;;;3.83;;
37459;SDS011;23318;50.966;5.284;2023-07-09T10:09:51;7.95;;;3.78;;
37459;SDS011;23318;50.966;5.284;2023-07-09T10:22:51;5.30;;;3.72;;
37459;SDS011;23318;50.966;5.284;2023-07-09T10:36:21;5.65;;;3.50;;
37459;SDS011;23318;50.966;5.284;2023-07-09T10:39:18;5.35;;;3.65;;
37459;SDS011;23318;50.966;5.284;2023-07-09T10:42:06;10.07;;;3.95;;
37459;SDS011;23318;50.966;5.284;2023-07-09T10:44:43;6.72;;;3.40;;
37459;SDS011;23318;50.966;5.284;2023-07-09T10:47:21;10.98;;;3.80;;
37459;SDS011;23318;50.966;5.284;2023-07-09T10:49:48;8.45;;;4.38;;
37459;SDS011;23318;50.966;5.284;2023-07-09T10:58:19;5.63;;;3.92;;
37459;SDS011;23318;50.966;5.284;2023-07-09T11:00:42;4.10;;;3.67;;
37459;SDS011;23318;50.966;5.284;2023-07-09T11:04:09;4.57;;;3.47;;
37459;SDS011;23318;50.966;5.284;2023-07-09T11:06:10;6.75;;;3.28;;
37459;SDS011;23318;50.966;5.284;2023-07-09T11:08:43;5.20;;;3.72;;
37459;SDS011;23318;50.966;5.284;2023-07-09T11:11:32;10.05;;;4.18;;
37459;SDS011;23318;50.966;5.284;2023-07-09T11:14:13;7.40;;;3.67;;
37459;SDS011;23318;50.966;5.284;2023-07-09T11:19:22;7.60;;;3.53;;
37459;SDS011;23318;50.966;5.284;2023-07-09T11:24:29;8.20;;;3.38;;
37459;SDS011;23318;50.966;5.284;2023-07-09T11:26:57;7.60;;;4.20;;
37459;SDS011;23318;50.966;5.284;2023-07-09T11:29:25;4.18;;;3.58;;
37459;SDS011;23318;50.966;5.284;2023-07-09T11:31:50;10.18;;;4.22;;
37459;SDS011;23318;50.966;5.284;2023-07-09T11:34:18;8.32;;;4.10;;
37459;SDS011;23318;50.966;5.284;2023-07-09T11:39:21;12.60;;;3.65;;
37459;SDS011;23318;50.966;5.284;2023-07-09T11:41:51;8.18;;;3.72;;
37459;SDS011;23318;50.966;5.284;2023-07-09T11:49:20;7.93;;;4.05;;
37459;SDS011;23318;50.966;5.284;2023-07-09T11:51:51;6.55;;;3.38;;
37459;SDS011;23318;50.966;5.284;2023-07-09T11:54:20;6.63;;;3.72;;
37459;SDS011;23318;50.966;5.284;2023-07-09T11:56:56;7.28;;;3.90;;
37459;SDS011;23318;50.966;5.284;2023-07-09T11:59:22;9.00;;;4.38;;
37459;SDS011;23318;50.966;5.284;2023-07-09T12:01:49;9.48;;;4.97;;
37459;SDS011;23318;50.966;5.284;2023-07-09T12:04:19;10.65;;;5.68;;
37459;SDS011;23318;50.966;5.284;2023-07-09T12:06:48;14.07;;;5.47;;
37459;SDS011;23318;50.966;5.284;2023-07-09T12:09:19;9.00;;;5.85;;
37459;SDS011;23318;50.966;5.284;2023-07-09T12:11:47;10.20;;;5.78;;
37459;SDS011;23318;50.966;5.284;2023-07-09T12:14:20;10.40;;;6.53;;
37459;SDS011;23318;50.966;5.284;2023-07-09T12:16:48;9.18;;;6.35;;
37459;SDS011;23318;50.966;5.284;2023-07-09T12:19:16;8.77;;;6.30;;
37459;SDS011;23318;50.966;5.284;2023-07-09T12:21:44;8.95;;;6.65;;
37459;SDS011;23318;50.966;5.284;2023-07-09T12:24:18;12.80;;;7.75;;
37459;SDS011;23318;50.966;5.284;2023-07-09T12:26:49;14.43;;;8.98;;
37459;SDS011;23318;50.966;5.284;2023-07-09T12:29:17;10.77;;;7.93;;
37459;SDS011;23318;50.966;5.284;2023-07-09T12:31:43;11.30;;;8.65;;
37459;SDS011;23318;50.966;5.284;2023-07-09T12:34:12;16.50;;;10.57;;
37459;SDS011;23318;50.966;5.284;2023-07-09T12:36:43;13.07;;;9.10;;
37459;SDS011;23318;50.966;5.284;2023-07-09T12:39:13;13.07;;;9.52;;
37459;SDS011;23318;50.966;5.284;2023-07-09T12:41:42;14.95;;;9.00;;
37459;SDS011;23318;50.966;5.284;2023-07-09T12:44:17;13.45;;;8.45;;
37459;SDS011;23318;50.966;5.284;2023-07-09T12:46:44;12.85;;;8.68;;
37459;SDS011;23318;50.966;5.284;2023-07-09T12:49:27;15.57;;;8.63;;
37459;SDS011;23318;50.966;5.284;2023-07-09T12:51:58;12.55;;;7.75;;
37459;SDS011;23318;50.966;5.284;2023-07-09T12:54:27;11.48;;;6.95;;
37459;SDS011;23318;50.966;5.284;2023-07-09T12:56:54;11.90;;;7.53;;
37459;SDS011;23318;50.966;5.284;2023-07-09T12:59:22;10.68;;;7.13;;
37459;SDS011;23318;50.966;5.284;2023-07-09T13:02:06;11.38;;;7.53;;
37459;SDS011;23318;50.966;5.284;2023-07-09T13:04:58;10.60;;;7.35;;
37459;SDS011;23318;50.966;5.284;2023-07-09T13:07:29;10.43;;;7.38;;
37459;SDS011;23318;50.966;5.284;2023-07-09T13:10:03;15.40;;;6.97;;
37459;SDS011;23318;50.966;5.284;2023-07-09T13:12:40;13.82;;;8.13;;
37459;SDS011;23318;50.966;5.284;2023-07-09T13:15:18;12.48;;;9.05;;
37459;SDS011;23318;50.966;5.284;2023-07-09T13:17:47;11.75;;;7.88;;
37459;SDS011;23318;50.966;5.284;2023-07-09T13:20:13;10.60;;;7.55;;
37459;SDS011;23318;50.966;5.284;2023-07-09T13:22:38;11.73;;;7.40;;
37459;SDS011;23318;50.966;5.284;2023-07-09T13:25:04;11.50;;;7.10;;
37459;SDS011;23318;50.966;5.284;2023-07-09T13:27:32;10.73;;;7.13;;
37459;SDS011;23318;50.966;5.284;2023-07-09T13:29:58;10.70;;;7.18;;
37459;SDS011;23318;50.966;5.284;2023-07-09T13:32:23;10.90;;;7.18;;
37459;SDS011;23318;50.966;5.284;2023-07-09T13:34:49;12.02;;;6.80;;
37459;SDS011;23318;50.966;5.284;2023-07-09T13:37:15;13.38;;;7.10;;
37459;SDS011;23318;50.966;5.284;2023-07-09T13:39:42;14.43;;;7.03;;
37459;SDS011;23318;50.966;5.284;2023-07-09T13:42:17;12.50;;;6.97;;
37459;SDS011;23318;50.966;5.284;2023-07-09T13:44:43;9.93;;;6.60;;
37459;SDS011;23318;50.966;5.284;2023-07-09T13:47:14;11.05;;;7.57;;
37459;SDS011;23318;50.966;5.284;2023-07-09T13:49:41;10.05;;;5.70;;
37459;SDS011;23318;50.966;5.284;2023-07-09T13:52:13;10.32;;;5.97;;
37459;SDS011;23318;50.966;5.284;2023-07-09T13:54:43;8.13;;;4.53;;
37459;SDS011;23318;50.966;5.284;2023-07-09T13:57:13;10.20;;;4.85;;
37459;SDS011;23318;50.966;5.284;2023-07-09T13:59:41;7.65;;;4.53;;
37459;SDS011;23318;50.966;5.284;2023-07-09T14:02:17;7.05;;;4.82;;
37459;SDS011;23318;50.966;5.284;2023-07-09T14:04:57;5.90;;;4.28;;
37459;SDS011;23318;50.966;5.284;2023-07-09T14:07:28;6.38;;;4.47;;
37459;SDS011;23318;50.966;5.284;2023-07-09T14:09:59;7.68;;;4.93;;
37459;SDS011;23318;50.966;5.284;2023-07-09T14:12:26;6.95;;;4.45;;
37459;SDS011;23318;50.966;5.284;2023-07-09T14:14:53;8.50;;;5.03;;
37459;SDS011;23318;50.966;5.284;2023-07-09T14:17:20;8.20;;;4.95;;
37459;SDS011;23318;50.966;5.284;2023-07-09T14:19:47;9.13;;;5.00;;
37459;SDS011;23318;50.966;5.284;2023-07-09T14:22:35;6.38;;;4.70;;
37459;SDS011;23318;50.966;5.284;2023-07-09T14:25:00;6.65;;;4.60;;
37459;SDS011;23318;50.966;5.284;2023-07-09T14:27:27;6.70;;;4.47;;
37459;SDS011;23318;50.966;5.284;2023-07-09T14:29:53;8.35;;;5.18;;
37459;SDS011;23318;50.966;5.284;2023-07-09T14:34:59;8.60;;;5.43;;
37459;SDS011;23318;50.966;5.284;2023-07-09T14:37:26;7.78;;;4.97;;
37459;SDS011;23318;50.966;5.284;2023-07-09T14:39:53;11.60;;;5.32;;
37459;SDS011;23318;50.966;5.284;2023-07-09T14:42:19;7.38;;;5.15;;
37459;SDS011;23318;50.966;5.284;2023-07-09T14:44:47;8.40;;;5.20;;
37459;SDS011;23318;50.966;5.284;2023-07-09T14:47:15;7.43;;;5.10;;
37459;SDS011;23318;50.966;5.284;2023-07-09T14:49:43;8.70;;;5.53;;
37459;SDS011;23318;50.966;5.284;2023-07-09T14:52:11;7.38;;;4.95;;
37459;SDS011;23318;50.966;5.284;2023-07-09T14:54:40;6.43;;;4.65;;
37459;SDS011;23318;50.966;5.284;2023-07-09T14:57:08;8.77;;;5.07;;
37459;SDS011;23318;50.966;5.284;2023-07-09T14:59:43;7.07;;;5.03;;
37459;SDS011;23318;50.966;5.284;2023-07-09T15:02:12;7.78;;;4.50;;
37459;SDS011;23318;50.966;5.284;2023-07-09T15:04:47;5.78;;;3.85;;
37459;SDS011;23318;50.966;5.284;2023-07-09T15:07:14;6.22;;;3.95;;
37459;SDS011;23318;50.966;5.284;2023-07-09T15:09:40;8.60;;;4.47;;
37459;SDS011;23318;50.966;5.284;2023-07-09T15:12:12;6.57;;;4.47;;
37459;SDS011;23318;50.966;5.284;2023-07-09T15:14:44;4.97;;;4.05;;
37459;SDS011;23318;50.966;5.284;2023-07-09T15:17:11;7.03;;;4.30;;
37459;SDS011;23318;50.966;5.284;2023-07-09T15:19:37;10.38;;;4.63;;
37459;SDS011;23318;50.966;5.284;2023-07-09T15:22:03;9.07;;;4.55;;
37459;SDS011;23318;50.966;5.284;2023-07-09T15:24:31;8.10;;;3.85;;
37459;SDS011;23318;50.966;5.284;2023-07-09T15:26:58;5.35;;;4.15;;
37459;SDS011;23318;50.966;5.284;2023-07-09T15:29:25;6.40;;;4.20;;
37459;SDS011;23318;50.966;5.284;2023-07-09T15:31:52;5.03;;;3.97;;
37459;SDS011;23318;50.966;5.284;2023-07-09T15:34:18;5.75;;;4.25;;
37459;SDS011;23318;50.966;5.284;2023-07-09T15:36:48;7.65;;;4.15;;
37459;SDS011;23318;50.966;5.284;2023-07-09T15:39:18;6.47;;;3.75;;
37459;SDS011;23318;50.966;5.284;2023-07-09T15:41:45;6.50;;;3.95;;